Meteorological Aerodrome Report (METAR)

METAR

Data at: 1145 UTC 29 May 2020

METAR for:NVSC (Sola/Vanua Lava Arpt, --, NV)
Text:NVSC 290900Z 12005KT 9999 BKN018 OVC040 28/25 Q1013
Temperature: 28.0°C ( 82°F)
Dewpoint: 25.0°C ( 77°F) [RH = 84%]
Pressure (altimeter):29.91 inches Hg (1013.0 mb)
Winds:from the ESE (120 degrees) at 6 MPH (5 knots; 2.6 m/s)
Visibility:6 or more sm (10+ km)
Ceiling:1800 feet AGL
Clouds: broken clouds at 1800 feet AGL, overcast cloud deck at 4000 feet AGL

METAR

Data at: 1145 UTC 29 May 2020

METAR for:NVSG (Longana Arpt, --, NV)
Text:NVSG 290900Z AUTO 15004KT //// // NCD ///// Q1016
Pressure (altimeter):30.00 inches Hg (1016.0 mb)
Winds:from the SSE (150 degrees) at 5 MPH (4 knots; 2.1 m/s)
Ceiling:at least 12,000 feet AGL
Clouds:sky clear below 12,000 feet AGL

METAR

Data at: 1145 UTC 29 May 2020

METAR for:NVSS (Santo/Pekoa Intl, --, NV)
Text:NVSS 290900Z 15002KT 9999 FEW025 26/23 Q1014
Temperature: 26.0°C ( 79°F)
Dewpoint: 23.0°C ( 73°F) [RH = 84%]
Pressure (altimeter):29.94 inches Hg (1014.0 mb)
Winds:from the SSE (150 degrees) at 2 MPH (2 knots; 1.0 m/s)
Visibility:6 or more sm (10+ km)
Ceiling:at least 12,000 feet AGL
Clouds: few clouds at 2500 feet AGL

METAR

Data at: 1145 UTC 29 May 2020

METAR for:NVSL (Malekula/Lamap, --, NV)
Text:No data found

METAR

Data at: 1145 UTC 29 May 2020

METAR for:NVSP (Norsup Arpt, --, NV)
Text:No data found

METAR

Data at: 1145 UTC 29 May 2020

METAR for:NVVV (Efate/Bauerfield Int, --, NV)
Text:NVVV 291000Z 12002KT 9999 FEW020 22/21 Q1015
Temperature: 22.0°C ( 72°F)
Dewpoint: 21.0°C ( 70°F) [RH = 94%]
Pressure (altimeter):29.97 inches Hg (1015.0 mb)
Winds:from the ESE (120 degrees) at 2 MPH (2 knots; 1.0 m/s)
Visibility:6 or more sm (10+ km)
Ceiling:at least 12,000 feet AGL
Clouds: few clouds at 2000 feet AGL

METAR

Data at: 1145 UTC 29 May 2020

METAR for:NVVW (Tanna Arpt, --, NV)
Text:NVVW 290900Z 00000KT 9999 SCT025 22/22 Q1016
Temperature: 22.0°C ( 72°F)
Dewpoint: 22.0°C ( 72°F) [RH = 100%]
Pressure (altimeter):30.00 inches Hg (1016.0 mb)
Winds:calm
Visibility:6 or more sm (10+ km)
Ceiling:at least 12,000 feet AGL
Clouds: scattered clouds at 2500 feet AGL

METAR

Data at: 1145 UTC 29 May 2020

METAR for:NVVA (Aneityum/Mystery Isl, --, NV)
Text:NVVA 290900Z 00000KT 9999 SCT025 BKN040 20/19 Q1016
Temperature: 20.0°C ( 68°F)
Dewpoint: 19.0°C ( 66°F) [RH = 94%]
Pressure (altimeter):30.00 inches Hg (1016.0 mb)
Winds:calm
Visibility:6 or more sm (10+ km)
Ceiling:4000 feet AGL
Clouds: scattered clouds at 2500 feet AGL, broken clouds at 4000 feet AGL

METAR

Data at: 1145 UTC 29 May 2020

NVVV 291000Z 12002KT 9999 FEW020 22/21 Q1015
NVSC 290900Z 12005KT 9999 BKN018 OVC040 28/25 Q1013
NVSG 290900Z AUTO 15004KT //// // NCD ///// Q1016
NVSS 290900Z 15002KT 9999 FEW025 26/23 Q1014
No Data available for NVSL
No Data available for NVSP
NVVW 290900Z 00000KT 9999 SCT025 22/22 Q1016
NVVA 290900Z 00000KT 9999 SCT025 BKN040 20/19 Q1016